sensor_id;sensor_type;location;lat;lon;timestamp;temperature;humidity
13606;DHT22;6874;52.084;5.090;2023-07-28T00:01:51;18.80;99.90
13606;DHT22;6874;52.084;5.090;2023-07-28T00:04:17;18.80;99.90
13606;DHT22;6874;52.084;5.090;2023-07-28T00:06:42;18.80;99.90
13606;DHT22;6874;52.084;5.090;2023-07-28T00:09:08;18.80;99.90
13606;DHT22;6874;52.084;5.090;2023-07-28T00:11:33;18.80;99.90
13606;DHT22;6874;52.084;5.090;2023-07-28T00:13:59;18.80;99.90
13606;DHT22;6874;52.084;5.090;2023-07-28T00:16:24;18.80;99.90
13606;DHT22;6874;52.084;5.090;2023-07-28T00:18:50;18.80;99.90
13606;DHT22;6874;52.084;5.090;2023-07-28T00:21:16;18.80;99.90
13606;DHT22;6874;52.084;5.090;2023-07-28T00:23:41;18.80;99.90
13606;DHT22;6874;52.084;5.090;2023-07-28T00:26:07;18.90;99.90
13606;DHT22;6874;52.084;5.090;2023-07-28T00:28:32;18.70;99.90
13606;DHT22;6874;52.084;5.090;2023-07-28T00:30:58;18.80;99.90
13606;DHT22;6874;52.084;5.090;2023-07-28T00:33:24;18.80;99.90
13606;DHT22;6874;52.084;5.090;2023-07-28T00:35:49;18.70;99.90
13606;DHT22;6874;52.084;5.090;2023-07-28T00:38:15;18.80;99.90
13606;DHT22;6874;52.084;5.090;2023-07-28T00:40:40;18.80;99.90
13606;DHT22;6874;52.084;5.090;2023-07-28T00:43:06;18.70;99.90
13606;DHT22;6874;52.084;5.090;2023-07-28T00:45:33;18.80;99.90
13606;DHT22;6874;52.084;5.090;2023-07-28T00:47:58;18.70;99.90
13606;DHT22;6874;52.084;5.090;2023-07-28T00:50:25;18.70;99.90
13606;DHT22;6874;52.084;5.090;2023-07-28T00:52:51;18.70;99.90
13606;DHT22;6874;52.084;5.090;2023-07-28T00:55:17;18.80;99.90
13606;DHT22;6874;52.084;5.090;2023-07-28T00:57:43;18.80;99.90
13606;DHT22;6874;52.084;5.090;2023-07-28T01:00:09;18.70;99.90
13606;DHT22;6874;52.084;5.090;2023-07-28T01:02:36;18.70;99.90
13606;DHT22;6874;52.084;5.090;2023-07-28T01:05:02;18.70;99.90
13606;DHT22;6874;52.084;5.090;2023-07-28T01:07:51;18.70;99.90
13606;DHT22;6874;52.084;5.090;2023-07-28T01:10:23;18.70;99.90
13606;DHT22;6874;52.084;5.090;2023-07-28T01:12:50;18.70;99.90
13606;DHT22;6874;52.084;5.090;2023-07-28T01:15:15;18.70;99.90
13606;DHT22;6874;52.084;5.090;2023-07-28T01:17:42;18.70;99.90
13606;DHT22;6874;52.084;5.090;2023-07-28T01:20:07;18.80;99.90
13606;DHT22;6874;52.084;5.090;2023-07-28T01:27:53;18.70;99.90
13606;DHT22;6874;52.084;5.090;2023-07-28T01:30:20;18.70;99.90
13606;DHT22;6874;52.084;5.090;2023-07-28T01:32:47;18.70;99.90
13606;DHT22;6874;52.084;5.090;2023-07-28T01:35:13;18.70;99.90
13606;DHT22;6874;52.084;5.090;2023-07-28T01:37:39;18.70;99.90
13606;DHT22;6874;52.084;5.090;2023-07-28T01:40:05;18.70;99.90
13606;DHT22;6874;52.084;5.090;2023-07-28T01:42:30;18.70;99.90
13606;DHT22;6874;52.084;5.090;2023-07-28T01:44:56;18.70;99.90
13606;DHT22;6874;52.084;5.090;2023-07-28T01:47:22;18.70;99.90
13606;DHT22;6874;52.084;5.090;2023-07-28T01:49:47;18.70;99.90
13606;DHT22;6874;52.084;5.090;2023-07-28T01:52:13;18.60;99.90
13606;DHT22;6874;52.084;5.090;2023-07-28T01:54:38;18.60;99.90
13606;DHT22;6874;52.084;5.090;2023-07-28T01:57:04;18.70;99.90
13606;DHT22;6874;52.084;5.090;2023-07-28T01:59:30;18.60;99.90
13606;DHT22;6874;52.084;5.090;2023-07-28T02:01:55;18.60;99.90
13606;DHT22;6874;52.084;5.090;2023-07-28T02:04:21;18.60;99.90
13606;DHT22;6874;52.084;5.090;2023-07-28T02:06:46;18.70;99.90
13606;DHT22;6874;52.084;5.090;2023-07-28T02:09:12;18.60;99.90
13606;DHT22;6874;52.084;5.090;2023-07-28T02:11:37;18.60;99.90
13606;DHT22;6874;52.084;5.090;2023-07-28T02:14:03;18.60;99.90
13606;DHT22;6874;52.084;5.090;2023-07-28T02:16:28;18.60;99.90
13606;DHT22;6874;52.084;5.090;2023-07-28T02:18:56;18.70;99.90
13606;DHT22;6874;52.084;5.090;2023-07-28T02:21:21;18.60;99.90
13606;DHT22;6874;52.084;5.090;2023-07-28T02:23:48;18.60;99.90
13606;DHT22;6874;52.084;5.090;2023-07-28T02:26:14;18.60;99.90
13606;DHT22;6874;52.084;5.090;2023-07-28T02:28:40;18.60;99.90
13606;DHT22;6874;52.084;5.090;2023-07-28T02:31:05;18.70;99.90
13606;DHT22;6874;52.084;5.090;2023-07-28T02:33:31;18.60;99.90
13606;DHT22;6874;52.084;5.090;2023-07-28T02:36:00;18.60;99.90
13606;DHT22;6874;52.084;5.090;2023-07-28T02:38:26;18.60;99.90
13606;DHT22;6874;52.084;5.090;2023-07-28T02:40:52;18.60;99.90
13606;DHT22;6874;52.084;5.090;2023-07-28T02:43:17;18.60;99.90
13606;DHT22;6874;52.084;5.090;2023-07-28T02:45:43;18.60;99.90
13606;DHT22;6874;52.084;5.090;2023-07-28T02:48:08;18.60;99.90
13606;DHT22;6874;52.084;5.090;2023-07-28T02:50:34;18.60;99.90
13606;DHT22;6874;52.084;5.090;2023-07-28T02:52:59;18.60;99.90
13606;DHT22;6874;52.084;5.090;2023-07-28T02:55:25;18.60;99.90
13606;DHT22;6874;52.084;5.090;2023-07-28T02:57:51;18.60;99.90
13606;DHT22;6874;52.084;5.090;2023-07-28T03:00:16;18.60;99.90
13606;DHT22;6874;52.084;5.090;2023-07-28T03:02:42;18.70;99.90
13606;DHT22;6874;52.084;5.090;2023-07-28T03:05:07;18.70;99.90
13606;DHT22;6874;52.084;5.090;2023-07-28T03:07:33;18.50;99.90
13606;DHT22;6874;52.084;5.090;2023-07-28T03:09:59;18.60;99.90
13606;DHT22;6874;52.084;5.090;2023-07-28T03:12:24;18.60;99.90
13606;DHT22;6874;52.084;5.090;2023-07-28T03:14:50;18.60;99.90
13606;DHT22;6874;52.084;5.090;2023-07-28T03:17:15;18.60;99.90
13606;DHT22;6874;52.084;5.090;2023-07-28T03:19:41;18.60;99.90
13606;DHT22;6874;52.084;5.090;2023-07-28T03:22:07;18.60;99.90
13606;DHT22;6874;52.084;5.090;2023-07-28T03:24:32;18.60;99.90
13606;DHT22;6874;52.084;5.090;2023-07-28T03:26:58;18.60;99.90
13606;DHT22;6874;52.084;5.090;2023-07-28T03:29:23;18.60;99.90
13606;DHT22;6874;52.084;5.090;2023-07-28T03:31:49;18.60;99.90
13606;DHT22;6874;52.084;5.090;2023-07-28T03:34:14;18.60;99.90
13606;DHT22;6874;52.084;5.090;2023-07-28T03:36:40;18.60;99.90
13606;DHT22;6874;52.084;5.090;2023-07-28T03:39:05;18.60;99.90
13606;DHT22;6874;52.084;5.090;2023-07-28T03:41:31;18.60;99.90
13606;DHT22;6874;52.084;5.090;2023-07-28T03:43:57;18.60;99.90
13606;DHT22;6874;52.084;5.090;2023-07-28T03:46:22;18.60;99.90
13606;DHT22;6874;52.084;5.090;2023-07-28T03:48:48;18.60;99.90
13606;DHT22;6874;52.084;5.090;2023-07-28T03:51:14;18.60;99.90
13606;DHT22;6874;52.084;5.090;2023-07-28T03:53:39;18.60;99.90
13606;DHT22;6874;52.084;5.090;2023-07-28T03:56:05;18.60;99.90
13606;DHT22;6874;52.084;5.090;2023-07-28T03:58:31;18.60;99.90
13606;DHT22;6874;52.084;5.090;2023-07-28T04:00:56;18.60;99.90
13606;DHT22;6874;52.084;5.090;2023-07-28T04:03:22;18.70;99.90
13606;DHT22;6874;52.084;5.090;2023-07-28T04:05:47;18.60;99.90
13606;DHT22;6874;52.084;5.090;2023-07-28T04:08:13;18.60;99.90
13606;DHT22;6874;52.084;5.090;2023-07-28T04:10:39;18.60;99.90
13606;DHT22;6874;52.084;5.090;2023-07-28T04:13:04;18.60;99.90
13606;DHT22;6874;52.084;5.090;2023-07-28T04:15:30;18.60;99.90
13606;DHT22;6874;52.084;5.090;2023-07-28T04:17:55;18.60;99.90
13606;DHT22;6874;52.084;5.090;2023-07-28T04:20:21;18.60;99.90
13606;DHT22;6874;52.084;5.090;2023-07-28T04:22:47;18.60;99.90
13606;DHT22;6874;52.084;5.090;2023-07-28T04:25:13;18.60;99.90
13606;DHT22;6874;52.084;5.090;2023-07-28T04:27:38;18.60;99.90
13606;DHT22;6874;52.084;5.090;2023-07-28T04:30:04;18.60;99.90
13606;DHT22;6874;52.084;5.090;2023-07-28T04:32:30;18.60;99.90
13606;DHT22;6874;52.084;5.090;2023-07-28T04:34:56;18.60;99.90
13606;DHT22;6874;52.084;5.090;2023-07-28T04:37:22;18.60;99.90
13606;DHT22;6874;52.084;5.090;2023-07-28T04:39:47;18.60;99.90
13606;DHT22;6874;52.084;5.090;2023-07-28T04:42:13;18.60;99.90
13606;DHT22;6874;52.084;5.090;2023-07-28T04:44:39;18.50;99.90
13606;DHT22;6874;52.084;5.090;2023-07-28T04:47:05;18.60;99.90
13606;DHT22;6874;52.084;5.090;2023-07-28T04:49:31;18.60;99.90
13606;DHT22;6874;52.084;5.090;2023-07-28T04:51:57;18.60;99.90
13606;DHT22;6874;52.084;5.090;2023-07-28T04:54:22;18.60;99.90
13606;DHT22;6874;52.084;5.090;2023-07-28T04:56:48;18.70;99.90
13606;DHT22;6874;52.084;5.090;2023-07-28T04:59:15;18.70;99.90
13606;DHT22;6874;52.084;5.090;2023-07-28T05:01:41;18.60;99.90
13606;DHT22;6874;52.084;5.090;2023-07-28T05:04:06;18.70;99.90
13606;DHT22;6874;52.084;5.090;2023-07-28T05:06:32;18.70;99.90
13606;DHT22;6874;52.084;5.090;2023-07-28T05:08:57;18.70;99.90
13606;DHT22;6874;52.084;5.090;2023-07-28T05:11:23;18.60;99.90
13606;DHT22;6874;52.084;5.090;2023-07-28T05:13:49;18.70;99.90
13606;DHT22;6874;52.084;5.090;2023-07-28T05:16:14;18.70;99.90
13606;DHT22;6874;52.084;5.090;2023-07-28T05:18:40;18.60;99.90
13606;DHT22;6874;52.084;5.090;2023-07-28T05:21:08;18.70;99.90
13606;DHT22;6874;52.084;5.090;2023-07-28T05:23:33;18.60;99.90
13606;DHT22;6874;52.084;5.090;2023-07-28T05:25:59;18.70;99.90
13606;DHT22;6874;52.084;5.090;2023-07-28T05:28:25;18.70;99.90
13606;DHT22;6874;52.084;5.090;2023-07-28T05:30:50;18.70;99.90
13606;DHT22;6874;52.084;5.090;2023-07-28T05:33:16;18.70;99.90
13606;DHT22;6874;52.084;5.090;2023-07-28T05:35:41;18.60;99.90
13606;DHT22;6874;52.084;5.090;2023-07-28T05:38:07;18.70;99.90
13606;DHT22;6874;52.084;5.090;2023-07-28T05:40:33;18.70;99.90
13606;DHT22;6874;52.084;5.090;2023-07-28T05:42:58;18.60;99.90
13606;DHT22;6874;52.084;5.090;2023-07-28T05:45:24;18.70;99.90
13606;DHT22;6874;52.084;5.090;2023-07-28T05:47:49;18.70;99.90
13606;DHT22;6874;52.084;5.090;2023-07-28T05:50:15;18.80;99.90
13606;DHT22;6874;52.084;5.090;2023-07-28T05:52:40;18.70;99.90
13606;DHT22;6874;52.084;5.090;2023-07-28T05:55:06;18.70;99.90
13606;DHT22;6874;52.084;5.090;2023-07-28T05:57:32;18.70;99.90
13606;DHT22;6874;52.084;5.090;2023-07-28T05:59:57;18.80;99.90
13606;DHT22;6874;52.084;5.090;2023-07-28T06:02:23;18.70;99.90
13606;DHT22;6874;52.084;5.090;2023-07-28T06:04:49;18.80;99.90
13606;DHT22;6874;52.084;5.090;2023-07-28T06:07:14;18.80;99.90
13606;DHT22;6874;52.084;5.090;2023-07-28T06:09:40;18.80;99.90
13606;DHT22;6874;52.084;5.090;2023-07-28T06:12:06;18.80;99.90
13606;DHT22;6874;52.084;5.090;2023-07-28T06:14:32;18.80;99.90
13606;DHT22;6874;52.084;5.090;2023-07-28T06:16:57;18.80;99.90
13606;DHT22;6874;52.084;5.090;2023-07-28T06:19:23;18.80;99.90
13606;DHT22;6874;52.084;5.090;2023-07-28T06:21:54;18.80;99.90
13606;DHT22;6874;52.084;5.090;2023-07-28T06:24:20;18.90;99.90
13606;DHT22;6874;52.084;5.090;2023-07-28T06:26:45;18.90;99.90
13606;DHT22;6874;52.084;5.090;2023-07-28T06:29:11;18.90;99.90
13606;DHT22;6874;52.084;5.090;2023-07-28T06:31:37;18.90;99.90
13606;DHT22;6874;52.084;5.090;2023-07-28T06:34:02;18.90;99.90
13606;DHT22;6874;52.084;5.090;2023-07-28T06:36:28;18.90;99.90
13606;DHT22;6874;52.084;5.090;2023-07-28T06:38:53;18.90;99.90
13606;DHT22;6874;52.084;5.090;2023-07-28T06:41:21;19.00;99.90
13606;DHT22;6874;52.084;5.090;2023-07-28T06:43:47;18.90;99.90
13606;DHT22;6874;52.084;5.090;2023-07-28T06:46:14;18.90;99.90
13606;DHT22;6874;52.084;5.090;2023-07-28T06:48:39;18.90;99.90
13606;DHT22;6874;52.084;5.090;2023-07-28T06:51:06;18.90;99.90
13606;DHT22;6874;52.084;5.090;2023-07-28T06:53:32;19.00;99.90
13606;DHT22;6874;52.084;5.090;2023-07-28T06:55:57;19.00;99.90
13606;DHT22;6874;52.084;5.090;2023-07-28T06:58:23;19.00;99.90
13606;DHT22;6874;52.084;5.090;2023-07-28T07:00:48;19.00;99.90
13606;DHT22;6874;52.084;5.090;2023-07-28T07:03:14;19.00;99.90
13606;DHT22;6874;52.084;5.090;2023-07-28T07:05:39;19.10;99.90
13606;DHT22;6874;52.084;5.090;2023-07-28T07:08:05;19.10;99.90
13606;DHT22;6874;52.084;5.090;2023-07-28T07:10:31;19.10;99.90
13606;DHT22;6874;52.084;5.090;2023-07-28T07:12:57;19.10;99.90
13606;DHT22;6874;52.084;5.090;2023-07-28T07:15:22;19.10;99.90
13606;DHT22;6874;52.084;5.090;2023-07-28T07:17:48;19.10;99.90
13606;DHT22;6874;52.084;5.090;2023-07-28T07:20:13;19.20;99.90
13606;DHT22;6874;52.084;5.090;2023-07-28T07:22:40;19.20;99.90
13606;DHT22;6874;52.084;5.090;2023-07-28T07:25:07;19.20;99.90
13606;DHT22;6874;52.084;5.090;2023-07-28T07:27:33;19.20;99.90
13606;DHT22;6874;52.084;5.090;2023-07-28T07:29:58;19.20;99.90
13606;DHT22;6874;52.084;5.090;2023-07-28T07:32:24;19.30;99.90
13606;DHT22;6874;52.084;5.090;2023-07-28T07:34:50;19.30;99.90
13606;DHT22;6874;52.084;5.090;2023-07-28T07:37:16;19.30;99.90
13606;DHT22;6874;52.084;5.090;2023-07-28T07:39:41;19.30;99.90
13606;DHT22;6874;52.084;5.090;2023-07-28T07:42:10;19.30;99.90
13606;DHT22;6874;52.084;5.090;2023-07-28T07:44:36;19.30;99.90
13606;DHT22;6874;52.084;5.090;2023-07-28T07:47:11;19.30;99.90
13606;DHT22;6874;52.084;5.090;2023-07-28T07:49:37;19.40;99.90
13606;DHT22;6874;52.084;5.090;2023-07-28T07:52:03;19.40;99.90
13606;DHT22;6874;52.084;5.090;2023-07-28T07:54:29;19.40;99.90
13606;DHT22;6874;52.084;5.090;2023-07-28T07:56:54;19.40;99.90
13606;DHT22;6874;52.084;5.090;2023-07-28T07:59:20;19.40;99.90
13606;DHT22;6874;52.084;5.090;2023-07-28T08:01:45;19.50;99.90
13606;DHT22;6874;52.084;5.090;2023-07-28T08:04:11;19.50;99.90
13606;DHT22;6874;52.084;5.090;2023-07-28T08:06:36;19.50;99.90
13606;DHT22;6874;52.084;5.090;2023-07-28T08:09:02;19.50;99.90
13606;DHT22;6874;52.084;5.090;2023-07-28T08:11:28;19.50;99.90
13606;DHT22;6874;52.084;5.090;2023-07-28T08:13:53;19.60;99.90
13606;DHT22;6874;52.084;5.090;2023-07-28T08:16:20;19.60;99.90
13606;DHT22;6874;52.084;5.090;2023-07-28T08:18:46;19.70;99.90
13606;DHT22;6874;52.084;5.090;2023-07-28T08:21:12;19.70;99.90
13606;DHT22;6874;52.084;5.090;2023-07-28T08:23:37;19.70;99.90
13606;DHT22;6874;52.084;5.090;2023-07-28T08:26:03;19.80;99.90
13606;DHT22;6874;52.084;5.090;2023-07-28T08:28:29;19.90;99.90
13606;DHT22;6874;52.084;5.090;2023-07-28T08:30:55;19.90;99.90
13606;DHT22;6874;52.084;5.090;2023-07-28T08:33:24;19.90;99.90
13606;DHT22;6874;52.084;5.090;2023-07-28T08:35:50;20.00;99.90
13606;DHT22;6874;52.084;5.090;2023-07-28T08:38:16;20.00;99.90
13606;DHT22;6874;52.084;5.090;2023-07-28T08:40:43;20.10;99.90
13606;DHT22;6874;52.084;5.090;2023-07-28T08:43:09;20.20;99.90
13606;DHT22;6874;52.084;5.090;2023-07-28T08:45:35;20.40;99.90
13606;DHT22;6874;52.084;5.090;2023-07-28T08:48:00;20.50;99.90
13606;DHT22;6874;52.084;5.090;2023-07-28T08:50:26;20.70;99.90
13606;DHT22;6874;52.084;5.090;2023-07-28T08:52:51;20.80;99.90
13606;DHT22;6874;52.084;5.090;2023-07-28T08:55:17;20.90;99.90
13606;DHT22;6874;52.084;5.090;2023-07-28T08:57:44;21.00;99.90
13606;DHT22;6874;52.084;5.090;2023-07-28T09:00:11;21.10;99.90
13606;DHT22;6874;52.084;5.090;2023-07-28T09:02:40;21.10;99.90
13606;DHT22;6874;52.084;5.090;2023-07-28T09:05:05;21.20;99.90
13606;DHT22;6874;52.084;5.090;2023-07-28T09:07:35;21.30;99.90
13606;DHT22;6874;52.084;5.090;2023-07-28T09:10:02;21.40;99.90
13606;DHT22;6874;52.084;5.090;2023-07-28T09:12:31;21.50;99.90
13606;DHT22;6874;52.084;5.090;2023-07-28T09:14:57;21.60;99.90
13606;DHT22;6874;52.084;5.090;2023-07-28T09:17:22;21.60;99.90
13606;DHT22;6874;52.084;5.090;2023-07-28T09:19:55;21.70;99.90
13606;DHT22;6874;52.084;5.090;2023-07-28T09:22:22;21.70;99.90
13606;DHT22;6874;52.084;5.090;2023-07-28T09:24:48;21.80;99.90
13606;DHT22;6874;52.084;5.090;2023-07-28T09:27:25;21.90;99.90
13606;DHT22;6874;52.084;5.090;2023-07-28T09:29:53;21.80;99.90
13606;DHT22;6874;52.084;5.090;2023-07-28T09:32:28;21.90;99.90
13606;DHT22;6874;52.084;5.090;2023-07-28T09:35:25;21.90;99.90
13606;DHT22;6874;52.084;5.090;2023-07-28T09:37:54;22.00;99.90
13606;DHT22;6874;52.084;5.090;2023-07-28T09:40:22;22.10;99.90
13606;DHT22;6874;52.084;5.090;2023-07-28T09:42:49;22.10;99.90
13606;DHT22;6874;52.084;5.090;2023-07-28T09:45:16;22.20;99.90
13606;DHT22;6874;52.084;5.090;2023-07-28T09:47:47;22.40;99.90
13606;DHT22;6874;52.084;5.090;2023-07-28T09:50:18;22.50;99.90
13606;DHT22;6874;52.084;5.090;2023-07-28T09:52:46;22.70;99.90
13606;DHT22;6874;52.084;5.090;2023-07-28T09:55:12;22.80;99.90
13606;DHT22;6874;52.084;5.090;2023-07-28T09:57:51;22.90;99.90
13606;DHT22;6874;52.084;5.090;2023-07-28T10:00:17;23.00;99.90
13606;DHT22;6874;52.084;5.090;2023-07-28T10:02:45;23.10;99.90
13606;DHT22;6874;52.084;5.090;2023-07-28T10:05:11;23.10;99.90
13606;DHT22;6874;52.084;5.090;2023-07-28T10:07:39;23.10;99.90
13606;DHT22;6874;52.084;5.090;2023-07-28T10:10:08;23.20;99.90
13606;DHT22;6874;52.084;5.090;2023-07-28T10:13:02;23.30;99.90
13606;DHT22;6874;52.084;5.090;2023-07-28T10:15:30;23.40;99.90
13606;DHT22;6874;52.084;5.090;2023-07-28T10:17:57;23.50;99.90
13606;DHT22;6874;52.084;5.090;2023-07-28T10:20:37;23.50;99.90
13606;DHT22;6874;52.084;5.090;2023-07-28T10:23:20;23.60;99.90
13606;DHT22;6874;52.084;5.090;2023-07-28T10:25:58;23.70;99.90
13606;DHT22;6874;52.084;5.090;2023-07-28T10:28:43;23.90;99.90
13606;DHT22;6874;52.084;5.090;2023-07-28T10:31:10;24.00;99.90
13606;DHT22;6874;52.084;5.090;2023-07-28T10:33:39;24.10;99.90
13606;DHT22;6874;52.084;5.090;2023-07-28T10:41:30;24.40;99.90
13606;DHT22;6874;52.084;5.090;2023-07-28T10:43:58;24.50;99.90
13606;DHT22;6874;52.084;5.090;2023-07-28T10:46:24;24.60;99.90
13606;DHT22;6874;52.084;5.090;2023-07-28T10:48:52;24.70;99.90
13606;DHT22;6874;52.084;5.090;2023-07-28T10:51:26;24.80;99.90
13606;DHT22;6874;52.084;5.090;2023-07-28T10:53:55;24.90;99.90
13606;DHT22;6874;52.084;5.090;2023-07-28T10:56:23;24.90;99.90
13606;DHT22;6874;52.084;5.090;2023-07-28T10:59:03;25.00;99.90
13606;DHT22;6874;52.084;5.090;2023-07-28T11:01:33;25.10;99.90
13606;DHT22;6874;52.084;5.090;2023-07-28T11:04:25;25.10;99.90
13606;DHT22;6874;52.084;5.090;2023-07-28T11:06:51;25.20;99.90
13606;DHT22;6874;52.084;5.090;2023-07-28T11:09:21;25.20;99.90
13606;DHT22;6874;52.084;5.090;2023-07-28T11:11:48;25.20;99.90
13606;DHT22;6874;52.084;5.090;2023-07-28T11:14:15;25.20;99.90
13606;DHT22;6874;52.084;5.090;2023-07-28T11:16:42;25.10;99.90
13606;DHT22;6874;52.084;5.090;2023-07-28T11:19:11;25.10;99.90
13606;DHT22;6874;52.084;5.090;2023-07-28T11:21:41;25.00;99.90
13606;DHT22;6874;52.084;5.090;2023-07-28T11:24:08;25.10;99.90
13606;DHT22;6874;52.084;5.090;2023-07-28T11:26:38;25.10;99.90
13606;DHT22;6874;52.084;5.090;2023-07-28T11:29:04;25.10;99.90
13606;DHT22;6874;52.084;5.090;2023-07-28T11:31:30;25.10;99.90
13606;DHT22;6874;52.084;5.090;2023-07-28T11:33:56;25.10;99.90
13606;DHT22;6874;52.084;5.090;2023-07-28T11:36:26;25.10;99.90
13606;DHT22;6874;52.084;5.090;2023-07-28T11:38:53;25.10;99.90
13606;DHT22;6874;52.084;5.090;2023-07-28T11:41:20;25.10;99.90
13606;DHT22;6874;52.084;5.090;2023-07-28T11:43:48;25.10;99.90
13606;DHT22;6874;52.084;5.090;2023-07-28T11:46:37;25.20;99.90
13606;DHT22;6874;52.084;5.090;2023-07-28T11:49:19;25.20;99.90
13606;DHT22;6874;52.084;5.090;2023-07-28T11:51:50;25.20;99.90
13606;DHT22;6874;52.084;5.090;2023-07-28T11:54:17;25.20;99.90
13606;DHT22;6874;52.084;5.090;2023-07-28T11:56:48;25.20;99.90
13606;DHT22;6874;52.084;5.090;2023-07-28T11:59:18;25.20;99.90
13606;DHT22;6874;52.084;5.090;2023-07-28T12:02:01;25.10;99.90
13606;DHT22;6874;52.084;5.090;2023-07-28T12:04:34;25.10;99.90
13606;DHT22;6874;52.084;5.090;2023-07-28T12:07:14;25.10;99.90
13606;DHT22;6874;52.084;5.090;2023-07-28T12:09:49;25.00;99.90
13606;DHT22;6874;52.084;5.090;2023-07-28T12:12:20;24.90;99.90
13606;DHT22;6874;52.084;5.090;2023-07-28T12:14:47;24.90;99.90
13606;DHT22;6874;52.084;5.090;2023-07-28T12:17:31;24.90;99.90
13606;DHT22;6874;52.084;5.090;2023-07-28T12:20:04;24.80;99.90
13606;DHT22;6874;52.084;5.090;2023-07-28T12:22:43;24.80;99.90
13606;DHT22;6874;52.084;5.090;2023-07-28T12:25:10;24.70;99.90
13606;DHT22;6874;52.084;5.090;2023-07-28T12:27:36;24.70;99.90
13606;DHT22;6874;52.084;5.090;2023-07-28T12:30:02;24.70;99.90
13606;DHT22;6874;52.084;5.090;2023-07-28T12:32:28;24.70;99.90
13606;DHT22;6874;52.084;5.090;2023-07-28T12:34:53;24.70;99.90
13606;DHT22;6874;52.084;5.090;2023-07-28T12:37:20;24.70;99.90
13606;DHT22;6874;52.084;5.090;2023-07-28T12:39:46;24.60;99.90
13606;DHT22;6874;52.084;5.090;2023-07-28T12:42:12;24.60;99.90
13606;DHT22;6874;52.084;5.090;2023-07-28T12:44:38;24.60;99.90
13606;DHT22;6874;52.084;5.090;2023-07-28T12:47:05;24.60;99.90
13606;DHT22;6874;52.084;5.090;2023-07-28T12:49:31;24.60;99.90
13606;DHT22;6874;52.084;5.090;2023-07-28T12:51:58;24.60;99.90
13606;DHT22;6874;52.084;5.090;2023-07-28T12:54:24;24.50;99.90
13606;DHT22;6874;52.084;5.090;2023-07-28T12:56:50;24.60;99.90
13606;DHT22;6874;52.084;5.090;2023-07-28T12:59:16;24.50;99.90
13606;DHT22;6874;52.084;5.090;2023-07-28T13:01:42;24.50;99.90
13606;DHT22;6874;52.084;5.090;2023-07-28T13:04:08;24.60;99.90
13606;DHT22;6874;52.084;5.090;2023-07-28T13:06:33;24.60;99.90
13606;DHT22;6874;52.084;5.090;2023-07-28T13:08:59;24.60;99.90
13606;DHT22;6874;52.084;5.090;2023-07-28T13:11:25;24.60;99.90
13606;DHT22;6874;52.084;5.090;2023-07-28T13:13:51;24.70;99.90
13606;DHT22;6874;52.084;5.090;2023-07-28T13:16:16;24.70;99.90
13606;DHT22;6874;52.084;5.090;2023-07-28T13:18:43;24.70;99.90
13606;DHT22;6874;52.084;5.090;2023-07-28T13:21:09;24.70;99.90
13606;DHT22;6874;52.084;5.090;2023-07-28T13:23:38;24.70;99.90
13606;DHT22;6874;52.084;5.090;2023-07-28T13:26:04;24.80;99.90
13606;DHT22;6874;52.084;5.090;2023-07-28T13:28:30;24.80;99.90
13606;DHT22;6874;52.084;5.090;2023-07-28T13:30:56;24.80;99.90
13606;DHT22;6874;52.084;5.090;2023-07-28T13:33:22;24.80;99.90
13606;DHT22;6874;52.084;5.090;2023-07-28T13:35:48;24.80;99.90
13606;DHT22;6874;52.084;5.090;2023-07-28T13:38:13;24.80;99.90
13606;DHT22;6874;52.084;5.090;2023-07-28T13:40:39;24.80;99.90
13606;DHT22;6874;52.084;5.090;2023-07-28T13:43:05;24.90;99.90
13606;DHT22;6874;52.084;5.090;2023-07-28T13:45:30;24.90;99.90
13606;DHT22;6874;52.084;5.090;2023-07-28T13:47:56;24.90;99.90
13606;DHT22;6874;52.084;5.090;2023-07-28T13:50:22;24.90;99.90
13606;DHT22;6874;52.084;5.090;2023-07-28T13:52:48;24.90;99.90
13606;DHT22;6874;52.084;5.090;2023-07-28T13:55:14;24.90;99.90
13606;DHT22;6874;52.084;5.090;2023-07-28T13:57:39;24.90;99.90
13606;DHT22;6874;52.084;5.090;2023-07-28T14:00:06;25.00;99.90
13606;DHT22;6874;52.084;5.090;2023-07-28T14:02:38;25.00;99.90
13606;DHT22;6874;52.084;5.090;2023-07-28T14:05:04;25.00;99.90
13606;DHT22;6874;52.084;5.090;2023-07-28T14:07:31;25.10;99.90
13606;DHT22;6874;52.084;5.090;2023-07-28T14:09:57;25.10;99.90
13606;DHT22;6874;52.084;5.090;2023-07-28T14:12:23;25.10;99.90
13606;DHT22;6874;52.084;5.090;2023-07-28T14:14:48;25.20;99.90
13606;DHT22;6874;52.084;5.090;2023-07-28T14:17:15;25.20;99.90
13606;DHT22;6874;52.084;5.090;2023-07-28T14:19:41;25.20;99.90
13606;DHT22;6874;52.084;5.090;2023-07-28T14:22:07;25.20;99.90
13606;DHT22;6874;52.084;5.090;2023-07-28T14:24:33;25.20;99.90
13606;DHT22;6874;52.084;5.090;2023-07-28T14:26:59;25.20;99.90
13606;DHT22;6874;52.084;5.090;2023-07-28T14:29:25;25.20;99.90
13606;DHT22;6874;52.084;5.090;2023-07-28T14:31:52;25.20;99.90
13606;DHT22;6874;52.084;5.090;2023-07-28T14:34:17;25.20;99.90
13606;DHT22;6874;52.084;5.090;2023-07-28T14:36:43;25.10;99.90
13606;DHT22;6874;52.084;5.090;2023-07-28T14:39:08;25.10;99.90
13606;DHT22;6874;52.084;5.090;2023-07-28T14:41:35;25.00;99.90
13606;DHT22;6874;52.084;5.090;2023-07-28T14:44:00;25.00;99.90
13606;DHT22;6874;52.084;5.090;2023-07-28T14:46:26;25.00;99.90
13606;DHT22;6874;52.084;5.090;2023-07-28T14:48:52;25.00;99.90
13606;DHT22;6874;52.084;5.090;2023-07-28T14:51:18;24.90;99.90
13606;DHT22;6874;52.084;5.090;2023-07-28T14:53:43;24.90;99.90
13606;DHT22;6874;52.084;5.090;2023-07-28T14:56:12;24.90;99.90
13606;DHT22;6874;52.084;5.090;2023-07-28T14:58:38;24.90;99.90
13606;DHT22;6874;52.084;5.090;2023-07-28T15:01:06;24.90;99.90
13606;DHT22;6874;52.084;5.090;2023-07-28T15:03:33;25.00;99.90
13606;DHT22;6874;52.084;5.090;2023-07-28T15:06:00;24.90;99.90
13606;DHT22;6874;52.084;5.090;2023-07-28T15:08:26;24.90;99.90
13606;DHT22;6874;52.084;5.090;2023-07-28T15:10:52;24.90;99.90
13606;DHT22;6874;52.084;5.090;2023-07-28T15:13:18;24.90;99.90
13606;DHT22;6874;52.084;5.090;2023-07-28T15:15:44;24.80;99.90
13606;DHT22;6874;52.084;5.090;2023-07-28T15:18:09;25.00;99.90
13606;DHT22;6874;52.084;5.090;2023-07-28T15:20:36;24.90;99.90
13606;DHT22;6874;52.084;5.090;2023-07-28T15:23:02;24.90;99.90
13606;DHT22;6874;52.084;5.090;2023-07-28T15:25:27;24.80;99.90
13606;DHT22;6874;52.084;5.090;2023-07-28T15:27:53;24.80;99.90
13606;DHT22;6874;52.084;5.090;2023-07-28T15:30:19;24.80;99.90
13606;DHT22;6874;52.084;5.090;2023-07-28T15:32:45;24.80;99.90
13606;DHT22;6874;52.084;5.090;2023-07-28T15:35:10;24.80;99.90
13606;DHT22;6874;52.084;5.090;2023-07-28T15:37:36;24.70;99.90
13606;DHT22;6874;52.084;5.090;2023-07-28T15:40:03;24.70;99.90
13606;DHT22;6874;52.084;5.090;2023-07-28T15:42:29;24.70;99.90
13606;DHT22;6874;52.084;5.090;2023-07-28T15:44:55;24.70;99.90
13606;DHT22;6874;52.084;5.090;2023-07-28T15:47:20;24.70;99.90
13606;DHT22;6874;52.084;5.090;2023-07-28T15:49:46;24.60;99.90
13606;DHT22;6874;52.084;5.090;2023-07-28T15:52:12;24.60;99.90
13606;DHT22;6874;52.084;5.090;2023-07-28T15:54:37;24.60;99.90